Nordic Harrier — V7VH2 — position and weather

sailwx.info

Track history (hours):
 
Tides and Currents Weather Stations Pressure Air Temp Water Temp Dewpoint Dewpoint Depression Visibility Wind Speed Wind Dir Waves Ship Positions

Nordic Harrier

Last reported at 2016-Jul-10 10:17 UTC. Time now 2016-Jul-28 22:22 UTC.
Position N 01°16' E 104°12'.
Warning: this ship's position is 18 days out of date.

Length 274 m; draft 16.4 m.

Type: Ship. MMSI: 538004121.

Date/timePositionNaut miles runAvg speedWind from/ knotsBaromVisibWave heightAir tempDewpointWater temp
2016-Jul-10 10:17N 01°16' E 104°12'811.0
2016-Jul-10 09:32N 01°15' E 104°04'1110.9
2016-Jul-10 08:32N 01°12' E 103°53'1110.3
2016-Jul-10 07:30N 01°06' E 103°44'  
2016-Jul-07 15:16N 01°08' E 103°35'6 7.5
2016-Jul-07 14:32N 01°11' E 103°40'8 7.9
2016-Jul-07 13:32N 01°11' E 103°48'1111.7
2016-Jul-07 12:33N 01°15' E 103°59'  
2016-Jul-02 04:04N 01°15' E 104°05'612.1
2016-Jul-02 03:33N 01°15' E 103°59'3 1.1
2016-Jul-02 00:32N 01°15' E 103°56'0 0.0
2016-Jul-01 19:26N 01°15' E 103°56'0 0.0
2016-Jul-01 18:08N 01°15' E 103°56'0 0.0
2016-Jul-01 17:32N 01°15' E 103°56'0 0.1
2016-Jul-01 15:20N 01°15' E 103°56'0 0.1
2016-Jul-01 14:23N 01°15' E 103°56'0 0.1
2016-Jul-01 13:29N 01°15' E 103°56'0 0.1
2016-Jul-01 12:34N 01°15' E 103°56'0 0.1
2016-Jul-01 11:33N 01°15' E 103°56'0 0.0
2016-Jul-01 10:31N 01°15' E 103°56'0 0.0
2016-Jul-01 09:30N 01°15' E 103°56'0 0.0
2016-Jul-01 08:32N 01°15' E 103°56'0 0.0
2016-Jul-01 07:32N 01°15' E 103°56'0 0.0
2016-Jul-01 06:31N 01°15' E 103°56'0 0.1
2016-Jul-01 04:29N 01°15' E 103°56'0 0.0
2016-Jul-01 03:10N 01°15' E 103°56'0 0.0
2016-Jul-01 02:32N 01°15' E 103°56'0 0.1
2016-Jul-01 01:34N 01°15' E 103°56'0 0.0
2016-Jul-01 00:34N 01°15' E 103°56'0 0.0
2016-Jun-30 23:33N 01°15' E 103°56'0 0.1
2016-Jun-30 22:33N 01°15' E 103°56'1 1.2
2016-Jun-30 21:34N 01°15' E 103°57'3 2.8
2016-Jun-30 20:33N 01°13' E 103°55'9 9.1
2016-Jun-30 19:33N 01°09' E 103°47'8810.7
2016-Jun-30 11:17N 01°47' E 102°28'912.2
2016-Jun-30 10:33N 01°51' E 102°19'  
Track history (hours):
 
Tides and Currents Weather Stations Pressure Air Temp Water Temp Dewpoint Dewpoint Depression Visibility Wind Speed Wind Dir Waves Ship Positions

Nordic Harrier

Last reported at 2016-Jul-10 10:17 UTC. Time now 2016-Jul-28 22:22 UTC.
Position N 01°16' E 104°12'.
Warning: this ship's position is 18 days out of date.

Length 274 m; draft 16.4 m.

Type: Ship. MMSI: 538004121.

Date/timePositionNaut miles runAvg speedWind from/ knotsBaromVisibWave heightAir tempDewpointWater temp
2016-Jul-10 10:17N 01°16' E 104°12'811.0
2016-Jul-10 09:32N 01°15' E 104°04'1110.9
2016-Jul-10 08:32N 01°12' E 103°53'1110.3
2016-Jul-10 07:30N 01°06' E 103°44'  
2016-Jul-07 15:16N 01°08' E 103°35'6 7.5
2016-Jul-07 14:32N 01°11' E 103°40'8 7.9
2016-Jul-07 13:32N 01°11' E 103°48'1111.7
2016-Jul-07 12:33N 01°15' E 103°59'  
2016-Jul-02 04:04N 01°15' E 104°05'612.1
2016-Jul-02 03:33N 01°15' E 103°59'3 1.1
2016-Jul-02 00:32N 01°15' E 103°56'0 0.0
2016-Jul-01 19:26N 01°15' E 103°56'0 0.0
2016-Jul-01 18:08N 01°15' E 103°56'0 0.0
2016-Jul-01 17:32N 01°15' E 103°56'0 0.1
2016-Jul-01 15:20N 01°15' E 103°56'0 0.1
2016-Jul-01 14:23N 01°15' E 103°56'0 0.1
2016-Jul-01 13:29N 01°15' E 103°56'0 0.1
2016-Jul-01 12:34N 01°15' E 103°56'0 0.1
2016-Jul-01 11:33N 01°15' E 103°56'0 0.0
2016-Jul-01 10:31N 01°15' E 103°56'0 0.0
2016-Jul-01 09:30N 01°15' E 103°56'0 0.0
2016-Jul-01 08:32N 01°15' E 103°56'0 0.0
2016-Jul-01 07:32N 01°15' E 103°56'0 0.0
2016-Jul-01 06:31N 01°15' E 103°56'0 0.1
2016-Jul-01 04:29N 01°15' E 103°56'0 0.0
2016-Jul-01 03:10N 01°15' E 103°56'0 0.0
2016-Jul-01 02:32N 01°15' E 103°56'0 0.1
2016-Jul-01 01:34N 01°15' E 103°56'0 0.0
2016-Jul-01 00:34N 01°15' E 103°56'0 0.0
2016-Jun-30 23:33N 01°15' E 103°56'0 0.1
2016-Jun-30 22:33N 01°15' E 103°56'1 1.2
2016-Jun-30 21:34N 01°15' E 103°57'3 2.8
2016-Jun-30 20:33N 01°13' E 103°55'9 9.1
2016-Jun-30 19:33N 01°09' E 103°47'8810.7
2016-Jun-30 11:17N 01°47' E 102°28'912.2
2016-Jun-30 10:33N 01°51' E 102°19'  

Dump ship's entire track history